Time;durP1;ratioP1;P1;durP2;ratioP2;P2;SDS_P1;SDS_P2;PMS_P1;PMS_P2;Temp;Humidity;BMP_temperature;BMP_pressure;BME280_temperature;BME280_humidity;BME280_pressure;Samples;Min_cycle;Max_cycle;Signal;HPM_P1;HPM_P2
2021/09/23 00:01:39;;;;;;;20.30;12.20;;;;;;;9.80;73.71;99139.34;5008418;28;20025;-71
2021/09/23 00:04:17;;;;;;;23.48;14.07;;;;;;;9.78;73.79;99127.03;5008255;28;20048;-71
2021/09/23 00:06:42;;;;;;;22.65;14.32;;;;;;;9.79;73.28;99123.16;5010113;28;20036;-71
2021/09/23 00:09:08;;;;;;;21.58;14.15;;;;;;;9.83;73.91;99119.63;5007884;28;20023;-71
2021/09/23 00:11:34;;;;;;;22.77;13.73;;;;;;;9.86;73.24;99110.00;5008210;28;20056;-70
2021/09/23 00:14:00;;;;;;;23.77;14.35;;;;;;;9.87;73.09;99108.91;5008606;28;20030;-72
2021/09/23 00:16:25;;;;;;;23.30;13.82;;;;;;;9.88;73.68;99107.81;5010723;28;20489;-72
2021/09/23 00:18:51;;;;;;;21.98;14.27;;;;;;;9.94;73.99;99116.88;5009005;28;20018;-72
2021/09/23 00:21:17;;;;;;;27.70;16.02;;;;;;;10.00;73.61;99114.94;5008059;28;20030;-72
2021/09/23 00:23:45;;;;;;;25.48;14.35;;;;;;;10.03;73.21;99115.19;4990077;28;20416;-72
2021/09/23 00:26:11;;;;;;;28.52;16.25;;;;;;;9.97;73.20;99103.44;5006455;28;20018;-71
2021/09/23 00:28:37;;;;;;;24.67;15.50;;;;;;;9.99;72.91;99105.88;5012717;28;20028;-71
2021/09/23 00:31:02;;;;;;;27.63;16.90;;;;;;;10.03;73.37;99106.97;5006544;28;20497;-71
2021/09/23 00:33:27;;;;;;;28.35;17.00;;;;;;;10.04;73.70;99105.06;5005796;28;20018;-72
2021/09/23 00:35:53;;;;;;;34.53;19.38;;;;;;;10.00;73.43;99099.31;5006577;28;20014;-71
2021/09/23 00:38:18;;;;;;;31.00;18.40;;;;;;;9.95;73.08;99096.59;5006611;28;20019;-71
2021/09/23 00:40:44;;;;;;;32.28;19.20;;;;;;;9.94;72.76;99094.94;5008338;28;20053;-71
2021/09/23 00:43:09;;;;;;;29.70;17.90;;;;;;;9.93;73.49;99091.38;5008260;28;20034;-72
2021/09/23 00:45:35;;;;;;;32.38;17.15;;;;;;;9.92;73.58;99099.88;5008972;28;20036;-71
2021/09/23 00:48:00;;;;;;;30.10;17.42;;;;;;;9.89;73.08;99105.91;5009905;28;20450;-72
2021/09/23 00:50:26;;;;;;;30.13;16.90;;;;;;;9.86;73.14;99103.72;5009997;28;20371;-73
2021/09/23 00:52:52;;;;;;;27.00;16.00;;;;;;;9.83;72.85;99105.09;4991556;28;20084;-73
2021/09/23 00:55:18;;;;;;;33.25;17.70;;;;;;;9.84;73.35;99103.97;5016227;28;20488;-71
2021/09/23 00:57:44;;;;;;;26.02;15.35;;;;;;;9.82;73.45;99101.53;5017301;28;20378;-73
2021/09/23 01:00:13;;;;;;;27.17;17.77;;;;;;;9.77;73.77;99098.00;5013266;28;20030;-72
2021/09/23 01:02:38;;;;;;;30.15;18.48;;;;;;;9.79;73.59;99099.34;5012694;28;20462;-71
2021/09/23 01:05:05;;;;;;;32.13;18.98;;;;;;;9.86;73.47;99100.97;5024355;28;20057;-72
2021/09/23 01:07:32;;;;;;;29.17;17.63;;;;;;;9.93;73.34;99096.06;4978005;28;20163;-72
2021/09/23 01:09:57;;;;;;;31.10;19.05;;;;;;;9.96;74.16;99085.34;5010982;28;20060;-72
2021/09/23 01:12:25;;;;;;;32.65;18.90;;;;;;;10.06;73.80;99083.69;5011649;28;20053;-71
2021/09/23 01:14:51;;;;;;;31.27;17.55;;;;;;;10.07;74.21;99072.44;5013115;28;20018;-71
2021/09/23 01:17:17;;;;;;;31.05;18.27;;;;;;;10.07;74.04;99080.66;5010188;28;20032;-72
2021/09/23 01:19:44;;;;;;;34.13;20.63;;;;;;;10.16;73.98;99080.94;5010745;28;20079;-71
2021/09/23 01:22:11;;;;;;;33.63;18.75;;;;;;;10.24;73.86;99074.03;5015516;28;20045;-72
2021/09/23 01:24:38;;;;;;;32.65;17.85;;;;;;;10.29;73.39;99065.81;5011263;28;20104;-74
2021/09/23 01:27:04;;;;;;;26.92;16.00;;;;;;;10.33;73.50;99061.41;5013374;28;20486;-75
2021/09/23 01:29:30;;;;;;;31.17;17.00;;;;;;;10.22;73.47;99054.31;5001139;28;20013;-74
2021/09/23 01:31:55;;;;;;;30.92;17.00;;;;;;;10.16;73.34;99056.25;5011594;28;20029;-74
2021/09/23 01:34:21;;;;;;;34.42;18.58;;;;;;;10.12;73.48;99050.50;5011935;28;20060;-75
2021/09/23 01:36:47;;;;;;;34.20;19.88;;;;;;;10.09;73.12;99045.56;5011875;28;20026;-75
2021/09/23 01:39:20;;;;;;;32.22;18.63;;;;;;;10.10;73.95;99043.66;5011498;28;20033;-74
2021/09/23 01:41:46;;;;;;;32.33;19.70;;;;;;;10.07;73.43;99036.00;5011607;28;20030;-75
2021/09/23 01:44:12;;;;;;;32.05;19.58;;;;;;;10.04;73.23;99034.63;5011131;28;20033;-75
2021/09/23 01:46:38;;;;;;;33.58;20.17;;;;;;;10.03;73.50;99032.16;5009607;28;20386;-77
2021/09/23 01:49:03;;;;;;;36.03;20.70;;;;;;;10.02;73.48;99028.59;5011144;28;20057;-77
2021/09/23 01:51:29;;;;;;;39.15;22.17;;;;;;;10.01;73.59;99031.63;5010958;28;20069;-74
2021/09/23 01:53:54;;;;;;;25.42;13.80;;;;;;;10.04;73.52;99033.81;5011017;28;20029;-74
2021/09/23 01:56:20;;;;;;;35.63;21.45;;;;;;;10.07;73.76;99039.53;5011226;28;20029;-74
2021/09/23 01:58:46;;;;;;;35.75;20.25;;;;;;;10.13;73.90;99027.47;5011156;28;20049;-74
2021/09/23 02:01:12;;;;;;;37.15;21.48;;;;;;;10.16;73.81;99028.00;5011335;28;20029;-74
2021/09/23 02:03:37;;;;;;;44.55;23.90;;;;;;;10.11;73.91;99017.91;5010380;28;20021;-74
2021/09/23 02:06:02;;;;;;;43.13;23.25;;;;;;;10.08;73.58;99027.47;5011043;28;20038;-74
2021/09/23 02:08:28;;;;;;;36.55;20.80;;;;;;;10.10;73.98;99019.00;5010564;28;20386;-75
2021/09/23 02:10:53;;;;;;;45.97;25.63;;;;;;;10.04;73.54;99018.19;5010797;28;20034;-74
2021/09/23 02:13:18;;;;;;;40.65;22.27;;;;;;;10.00;73.35;99010.81;5011472;28;20108;-74
2021/09/23 02:15:44;;;;;;;47.70;25.00;;;;;;;9.95;74.04;99009.72;5011052;28;20485;-74
2021/09/23 02:18:09;;;;;;;45.55;24.02;;;;;;;9.95;73.36;99006.16;4993256;28;20121;-74
2021/09/23 02:20:35;;;;;;;45.70;24.73;;;;;;;9.87;73.58;99002.06;5011018;28;20513;-72
2021/09/23 02:23:00;;;;;;;44.00;24.08;;;;;;;9.82;74.12;99002.91;5010640;28;20022;-74
2021/09/23 02:25:26;;;;;;;41.38;22.75;;;;;;;9.80;74.29;98998.78;5011018;28;20465;-75
2021/09/23 02:27:51;;;;;;;41.40;23.30;;;;;;;9.82;74.92;99004.81;5010692;28;20033;-73
2021/09/23 02:30:16;;;;;;;40.50;22.15;;;;;;;9.89;74.67;99010.81;5010214;28;20132;-74
2021/09/23 02:32:42;;;;;;;42.10;23.75;;;;;;;9.85;74.31;98997.97;5010587;28;20053;-74
2021/09/23 02:35:08;;;;;;;36.72;22.75;;;;;;;9.77;74.37;98989.22;5008146;28;20029;-74
2021/09/23 02:37:33;;;;;;;42.22;23.42;;;;;;;9.78;74.28;98996.34;5010899;28;20021;-74
2021/09/23 02:39:59;;;;;;;37.55;22.48;;;;;;;9.79;74.75;98988.94;4992666;28;20182;-74
2021/09/23 02:42:25;;;;;;;36.40;20.33;;;;;;;9.77;74.99;98991.97;5010159;28;20041;-73
2021/09/23 02:44:51;;;;;;;41.75;23.20;;;;;;;9.78;74.75;98992.78;5011749;28;20470;-73
2021/09/23 02:47:17;;;;;;;38.60;21.88;;;;;;;9.77;74.78;98991.97;4993025;28;20360;-73
2021/09/23 02:49:43;;;;;;;32.03;19.05;;;;;;;9.85;74.68;98995.22;4991782;28;20033;-73
2021/09/23 02:52:08;;;;;;;33.28;19.75;;;;;;;9.87;75.27;98993.03;5014239;28;20021;-74
2021/09/23 02:54:34;;;;;;;34.40;20.05;;;;;;;9.87;75.02;98987.56;5010123;28;20474;-73
2021/09/23 02:56:59;;;;;;;33.85;19.92;;;;;;;9.83;74.67;98984.53;5009644;28;20026;-74
2021/09/23 02:59:25;;;;;;;33.58;20.23;;;;;;;9.80;74.67;98982.34;4992132;28;20037;-73
2021/09/23 03:01:50;;;;;;;32.75;17.45;;;;;;;9.76;75.45;98971.16;5008783;28;20064;-73
2021/09/23 03:04:15;;;;;;;28.73;16.85;;;;;;;9.72;74.94;98982.94;5009385;28;20084;-72
2021/09/23 03:06:41;;;;;;;34.20;20.38;;;;;;;9.68;75.47;98975.28;5008268;28;20018;-74
2021/09/23 03:09:08;;;;;;;36.20;20.33;;;;;;;9.68;75.00;98982.66;5010969;28;20050;-74
2021/09/23 03:11:35;;;;;;;38.90;21.42;;;;;;;9.63;75.16;98969.81;5009025;28;20109;-73
2021/09/23 03:14:01;;;;;;;31.67;17.70;;;;;;;9.60;75.51;98977.75;5007933;28;20520;-73
2021/09/23 03:16:26;;;;;;;29.67;16.75;;;;;;;9.57;75.39;98975.59;5008421;28;20047;-74
2021/09/23 03:18:52;;;;;;;30.50;18.90;;;;;;;9.54;75.73;98976.94;5008259;28;20359;-74
2021/09/23 03:21:19;;;;;;;30.58;19.08;;;;;;;9.52;76.09;98981.88;4990861;28;20498;-75
2021/09/23 03:23:44;;;;;;;36.20;18.45;;;;;;;9.54;76.53;98985.16;5012572;28;20413;-74
2021/09/23 03:26:10;;;;;;;29.92;17.42;;;;;;;9.55;75.88;98983.25;5009570;28;20129;-73
2021/09/23 03:28:36;;;;;;;29.40;17.50;;;;;;;9.55;75.56;98977.78;5009418;28;20030;-74
2021/09/23 03:31:01;;;;;;;32.40;17.83;;;;;;;9.60;76.21;98975.84;5009104;28;20030;-74
2021/09/23 03:33:27;;;;;;;26.80;16.20;;;;;;;9.63;76.45;98978.03;4991508;28;20045;-74
2021/09/23 03:35:52;;;;;;;25.38;15.52;;;;;;;9.66;76.33;98984.84;5008387;28;20049;-74
2021/09/23 03:38:18;;;;;;;27.58;15.65;;;;;;;9.69;76.11;98978.81;5009602;28;20382;-75
2021/09/23 03:40:45;;;;;;;32.90;17.70;;;;;;;9.74;75.98;98973.34;5008840;28;20024;-75
2021/09/23 03:43:20;;;;;;;28.60;16.55;;;;;;;9.78;76.30;98968.94;4990060;28;20018;-74
2021/09/23 03:45:49;;;;;;;25.27;14.85;;;;;;;9.86;76.61;98964.81;5008417;28;20041;-74
2021/09/23 03:48:15;;;;;;;26.63;17.08;;;;;;;9.88;76.27;98968.09;5006379;28;20041;-73
2021/09/23 03:50:40;;;;;;;28.80;17.15;;;;;;;9.91;75.80;98956.56;5008395;28;20496;-74
2021/09/23 03:53:06;;;;;;;28.02;17.02;;;;;;;9.96;76.31;98964.78;5007586;28;20026;-74
2021/09/23 03:55:31;;;;;;;26.92;16.35;;;;;;;10.00;76.66;98958.75;5007826;28;20030;-74
2021/09/23 03:57:57;;;;;;;28.20;17.05;;;;;;;10.07;75.98;98959.25;5007741;28;20022;-74
2021/09/23 04:00:25;;;;;;;27.80;17.63;;;;;;;10.10;75.29;98953.22;5009898;28;20064;-74
2021/09/23 04:02:51;;;;;;;29.35;17.65;;;;;;;10.11;75.90;98949.38;5009384;28;20025;-74
2021/09/23 04:05:17;;;;;;;28.88;17.65;;;;;;;10.13;75.46;98934.28;5008777;28;20061;-74
2021/09/23 04:07:43;;;;;;;27.92;18.10;;;;;;;10.12;75.49;98934.59;5009729;28;20030;-74
2021/09/23 04:10:09;;;;;;;27.15;16.55;;;;;;;10.11;75.55;98936.47;5008533;28;20116;-74
2021/09/23 04:12:36;;;;;;;28.45;16.90;;;;;;;10.06;75.27;98932.97;5009113;28;20026;-74
2021/09/23 04:15:03;;;;;;;28.73;17.52;;;;;;;10.05;75.62;98936.81;5008542;28;20026;-73
2021/09/23 04:17:29;;;;;;;25.70;15.57;;;;;;;10.05;75.47;98945.03;5011294;28;20033;-74
2021/09/23 04:19:54;;;;;;;26.70;16.60;;;;;;;10.00;75.02;98936.81;5008337;28;20029;-73
2021/09/23 04:22:20;;;;;;;27.35;16.38;;;;;;;10.03;75.73;98942.53;5007656;28;20029;-74
2021/09/23 04:24:45;;;;;;;24.08;14.43;;;;;;;10.01;75.55;98938.47;5008550;28;20032;-74
2021/09/23 04:27:12;;;;;;;25.90;16.85;;;;;;;10.00;75.54;98937.63;5008516;28;20029;-73
2021/09/23 04:29:39;;;;;;;26.17;16.33;;;;;;;10.04;76.12;98930.47;5007769;28;20018;-74
2021/09/23 04:32:06;;;;;;;22.30;13.52;;;;;;;10.06;75.09;98947.47;4995447;28;20037;-74
2021/09/23 04:34:31;;;;;;;21.27;12.60;;;;;;;10.04;76.26;98951.59;5016732;28;20033;-73
2021/09/23 04:36:57;;;;;;;24.90;14.57;;;;;;;10.05;76.23;98955.97;5015610;28;20022;-74
2021/09/23 04:39:22;;;;;;;24.58;14.82;;;;;;;10.05;76.31;98945.81;5015391;28;20032;-74
2021/09/23 04:41:48;;;;;;;25.98;15.55;;;;;;;10.06;75.55;98944.72;5014900;28;20036;-74
2021/09/23 04:44:13;;;;;;;24.10;14.95;;;;;;;10.08;76.05;98947.19;5017150;28;20052;-73
2021/09/23 04:46:39;;;;;;;24.80;14.90;;;;;;;10.08;75.55;98939.78;5018254;28;20033;-74
2021/09/23 04:49:04;;;;;;;24.35;14.30;;;;;;;10.05;76.34;98928.56;5018113;28;20026;-74
2021/09/23 04:51:30;;;;;;;23.67;15.13;;;;;;;10.03;75.93;98936.25;5017787;28;20033;-74
2021/09/23 04:53:57;;;;;;;26.35;15.85;;;;;;;10.04;75.55;98925.00;5020130;28;20018;-74
2021/09/23 04:56:22;;;;;;;24.75;15.43;;;;;;;10.03;75.75;98920.63;5014874;28;20050;-74
2021/09/23 04:58:48;;;;;;;22.50;13.75;;;;;;;9.98;75.88;98921.47;5014544;28;20049;-74
2021/09/23 05:01:14;;;;;;;26.80;15.00;;;;;;;9.96;75.96;98926.41;4997231;28;20028;-74
2021/09/23 05:03:39;;;;;;;24.33;14.02;;;;;;;9.96;76.04;98923.69;5016987;28;20053;-74
2021/09/23 05:06:05;;;;;;;24.10;14.07;;;;;;;9.91;76.49;98912.72;5014509;28;20443;-74
2021/09/23 05:08:30;;;;;;;27.02;17.63;;;;;;;9.87;76.35;98911.66;5015581;28;20033;-73
2021/09/23 05:10:56;;;;;;;24.52;16.05;;;;;;;9.85;76.52;98913.84;5014598;28;20025;-74
2021/09/23 05:13:21;;;;;;;24.27;14.35;;;;;;;9.88;76.51;98898.78;5013899;28;20026;-74
2021/09/23 05:15:46;;;;;;;23.70;14.38;;;;;;;9.88;76.44;98896.84;5013911;28;20037;-74
2021/09/23 05:18:12;;;;;;;25.92;15.00;;;;;;;9.85;75.73;98896.59;5013993;28;20050;-74
2021/09/23 05:20:38;;;;;;;22.00;13.57;;;;;;;9.84;76.11;98898.50;5014960;28;20026;-73
2021/09/23 05:23:04;;;;;;;28.17;16.50;;;;;;;9.78;76.88;98902.41;5014566;28;20529;-74
2021/09/23 05:25:30;;;;;;;24.38;15.10;;;;;;;9.80;76.89;98901.00;5014497;28;20026;-74
2021/09/23 05:27:56;;;;;;;29.42;16.40;;;;;;;9.82;76.37;98908.94;5014217;28;20374;-74
2021/09/23 05:30:21;;;;;;;23.67;16.27;;;;;;;9.82;76.63;98907.03;5015535;28;20033;-75
2021/09/23 05:32:48;;;;;;;28.42;19.45;;;;;;;9.80;76.60;98901.00;4998608;28;20528;-74
2021/09/23 05:35:13;;;;;;;27.75;17.88;;;;;;;9.78;76.17;98905.13;5024840;28;20022;-75
2021/09/23 05:37:39;;;;;;;22.45;14.82;;;;;;;9.79;76.79;98906.75;5035329;28;20071;-74
2021/09/23 05:40:06;;;;;;;21.70;15.07;;;;;;;9.76;76.21;98899.94;5034792;28;20057;-74
2021/09/23 05:42:31;;;;;;;25.83;15.20;;;;;;;9.82;76.43;98896.06;5033921;28;20037;-74
2021/09/23 05:44:57;;;;;;;30.13;17.35;;;;;;;9.84;76.27;98912.22;5031877;28;20393;-74
2021/09/23 05:47:22;;;;;;;30.23;17.33;;;;;;;9.90;76.55;98902.88;5021763;28;20022;-75
2021/09/23 05:49:48;;;;;;;32.50;16.60;;;;;;;9.93;76.92;98899.56;5017362;28;20038;-74
2021/09/23 05:52:16;;;;;;;31.08;16.55;;;;;;;9.93;77.11;98899.56;4994007;28;20026;-74
2021/09/23 05:54:42;;;;;;;29.98;16.75;;;;;;;9.99;77.39;98903.09;5012283;28;20018;-74
2021/09/23 05:57:07;;;;;;;27.05;17.60;;;;;;;10.01;77.21;98889.94;5013373;28;20079;-74
2021/09/23 05:59:32;;;;;;;29.42;16.92;;;;;;;10.00;77.20;98888.28;5021294;28;20508;-75
2021/09/23 06:01:58;;;;;;;26.23;14.85;;;;;;;10.02;77.50;98904.47;5017602;28;20018;-74
2021/09/23 06:04:24;;;;;;;23.80;14.55;;;;;;;10.00;76.78;98896.53;5031789;28;20041;-74
2021/09/23 06:06:49;;;;;;;20.38;12.73;;;;;;;9.97;77.03;98892.44;5031833;28;20481;-75
2021/09/23 06:09:15;;;;;;;25.10;15.50;;;;;;;9.96;77.21;98893.53;5030279;28;20029;-75
2021/09/23 06:11:41;;;;;;;26.48;16.63;;;;;;;9.97;77.51;98891.63;5031628;28;20473;-74
2021/09/23 06:14:07;;;;;;;28.08;15.88;;;;;;;10.00;77.54;98882.00;5031488;28;20037;-74
2021/09/23 06:16:32;;;;;;;30.33;16.88;;;;;;;10.06;77.96;98881.69;5025743;28;20112;-74
2021/09/23 06:18:58;;;;;;;28.40;15.68;;;;;;;10.13;78.44;98884.94;5019368;28;20508;-74
2021/09/23 06:21:23;;;;;;;22.08;13.02;;;;;;;10.21;77.74;98882.72;5031783;28;20049;-74
2021/09/23 06:23:49;;;;;;;23.45;14.57;;;;;;;10.26;77.92;98886.25;5030399;28;20806;-74
2021/09/23 06:26:14;;;;;;;23.88;15.15;;;;;;;10.30;77.88;98881.03;5031082;28;20033;-74
2021/09/23 06:28:40;;;;;;;24.40;14.07;;;;;;;10.32;77.81;98881.56;5030882;28;20061;-74
2021/09/23 06:31:05;;;;;;;28.98;16.08;;;;;;;10.36;77.56;98892.78;5012427;28;20382;-74
2021/09/23 06:33:31;;;;;;;21.75;12.77;;;;;;;10.41;78.22;98890.81;5011040;28;20040;-74
2021/09/23 06:35:57;;;;;;;28.42;15.30;;;;;;;10.51;78.04;98884.47;5006488;28;20083;-74
2021/09/23 06:38:22;;;;;;;25.52;15.10;;;;;;;10.60;77.33;98883.88;4994415;28;20610;-74
2021/09/23 06:40:48;;;;;;;20.08;11.88;;;;;;;10.64;77.25;98893.16;5031393;28;20436;-74
2021/09/23 06:43:13;;;;;;;20.70;13.27;;;;;;;10.66;77.28;98889.03;5031239;28;20029;-73
2021/09/23 06:45:39;;;;;;;27.15;14.98;;;;;;;10.74;77.25;98887.59;5031394;28;20108;-73
2021/09/23 06:48:04;;;;;;;27.63;14.88;;;;;;;10.82;77.26;98886.13;4995590;28;20560;-73
2021/09/23 06:50:30;;;;;;;21.67;12.52;;;;;;;10.93;77.87;98889.63;5023504;28;20115;-74
2021/09/23 06:52:55;;;;;;;22.77;12.10;;;;;;;10.99;77.21;98881.06;5019084;28;20029;-74
2021/09/23 06:55:21;;;;;;;25.02;13.05;;;;;;;11.08;77.26;98867.53;5010256;28;20033;-74
2021/09/23 06:57:48;;;;;;;24.65;13.30;;;;;;;11.13;76.61;98872.97;4993199;28;20033;-72
2021/09/23 07:00:14;;;;;;;22.83;12.27;;;;;;;11.20;76.95;98866.31;5021172;28;20048;-73
2021/09/23 07:02:39;;;;;;;20.70;12.07;;;;;;;11.27;76.92;98869.53;5030744;28;20373;-74
2021/09/23 07:05:05;;;;;;;22.85;13.40;;;;;;;11.32;77.01;98864.81;5021205;28;20153;-74
2021/09/23 07:07:31;;;;;;;22.08;13.90;;;;;;;11.39;76.90;98858.16;5010897;28;20037;-74
2021/09/23 07:09:56;;;;;;;18.20;10.77;;;;;;;11.47;76.40;98857.50;5010477;28;20026;-73
2021/09/23 07:12:22;;;;;;;19.13;10.52;;;;;;;11.55;76.78;98851.38;5007806;28;20092;-74
2021/09/23 07:14:48;;;;;;;20.27;10.00;;;;;;;11.59;76.60;98844.19;5011294;28;20109;-74
2021/09/23 07:17:13;;;;;;;20.30;11.48;;;;;;;11.64;75.78;98836.97;5010895;28;20014;-73
2021/09/23 07:19:39;;;;;;;16.35;9.23;;;;;;;11.64;75.67;98837.81;4992853;28;20121;-74
2021/09/23 07:22:05;;;;;;;25.45;10.80;;;;;;;11.67;75.43;98839.97;5010807;28;20026;-74
2021/09/23 07:24:31;;;;;;;18.75;9.38;;;;;;;11.73;75.44;98847.03;5011224;28;20038;-73
2021/09/23 07:26:57;;;;;;;19.50;10.48;;;;;;;11.79;75.29;98841.47;5015087;28;20032;-74
2021/09/23 07:29:22;;;;;;;21.20;10.00;;;;;;;11.86;75.33;98845.50;5029601;28;20018;-74
2021/09/23 07:31:48;;;;;;;13.13;7.90;;;;;;;11.95;75.31;98842.91;5010576;28;20088;-73
2021/09/23 07:34:14;;;;;;;16.77;11.07;;;;;;;12.07;75.70;98842.47;5010641;28;20029;-74
2021/09/23 07:36:41;;;;;;;17.73;10.55;;;;;;;12.16;75.31;98845.41;5010943;28;20080;-74
2021/09/23 07:39:08;;;;;;;15.35;8.85;;;;;;;12.25;74.86;98837.28;5015371;28;20029;-75
2021/09/23 07:41:37;;;;;;;17.70;9.68;;;;;;;12.34;74.83;98841.00;5030293;28;20032;-74
2021/09/23 07:44:04;;;;;;;16.23;9.65;;;;;;;12.36;74.78;98842.31;5017412;28;20689;-74
2021/09/23 07:46:29;;;;;;;19.08;10.07;;;;;;;12.46;74.77;98844.09;5011127;28;20489;-75
2021/09/23 07:48:55;;;;;;;16.63;8.60;;;;;;;12.54;74.26;98850.03;5010102;28;20025;-74
2021/09/23 07:51:20;;;;;;;12.77;7.03;;;;;;;12.51;73.62;98841.25;4993278;28;20042;-74
2021/09/23 07:53:46;;;;;;;15.60;8.77;;;;;;;12.51;73.45;98833.00;5010175;28;20053;-74
2021/09/23 07:56:12;;;;;;;15.07;8.10;;;;;;;12.58;73.39;98831.81;5005988;28;20031;-74
2021/09/23 07:58:37;;;;;;;17.05;8.65;;;;;;;12.60;73.53;98838.66;5012960;28;20112;-74
2021/09/23 08:01:02;;;;;;;16.08;7.85;;;;;;;12.66;73.48;98836.63;4992040;28;20397;-74
2021/09/23 08:03:28;;;;;;;18.85;8.82;;;;;;;12.70;73.01;98826.66;5010392;28;20032;-74
2021/09/23 08:05:53;;;;;;;19.70;10.75;;;;;;;12.77;73.00;98840.03;5028197;28;20119;-74
2021/09/23 08:08:19;;;;;;;18.60;9.25;;;;;;;12.86;72.93;98837.41;5029488;28;20030;-74
2021/09/23 08:10:44;;;;;;;19.63;10.35;;;;;;;12.93;73.04;98835.91;5029847;28;20026;-74
2021/09/23 08:13:10;;;;;;;19.52;11.30;;;;;;;13.05;73.12;98829.91;5030097;28;20034;-74
2021/09/23 08:15:35;;;;;;;16.83;9.63;;;;;;;13.10;72.38;98838.06;5030088;28;20021;-74
2021/09/23 08:18:00;;;;;;;23.05;8.45;;;;;;;13.16;72.42;98840.72;5025093;28;20033;-73
2021/09/23 08:20:27;;;;;;;11.88;7.35;;;;;;;13.23;72.38;98828.19;5003280;28;20026;-73
2021/09/23 08:22:53;;;;;;;25.33;15.88;;;;;;;13.32;72.35;98828.28;5005558;28;20486;-70
2021/09/23 08:25:18;;;;;;;20.52;12.63;;;;;;;13.36;71.50;98829.31;5010294;28;20045;-75
2021/09/23 08:27:44;;;;;;;15.70;8.38;;;;;;;13.37;71.46;98830.94;5007768;28;20030;-74
2021/09/23 08:30:10;;;;;;;25.45;13.90;;;;;;;13.39;71.31;98830.66;5009255;28;20478;-75
2021/09/23 08:32:35;;;;;;;16.95;9.38;;;;;;;13.45;71.33;98828.63;4991535;28;20034;-74
2021/09/23 08:35:06;;;;;;;16.67;8.02;;;;;;;13.51;71.49;98830.97;5009615;28;20109;-75
2021/09/23 08:37:33;;;;;;;17.92;10.70;;;;;;;13.60;71.44;98822.81;5008164;28;20088;-73
2021/09/23 08:39:58;;;;;;;15.90;8.00;;;;;;;13.74;71.67;98819.22;5010995;28;20043;-75
2021/09/23 08:42:24;;;;;;;17.27;9.38;;;;;;;13.82;70.93;98812.97;5008766;28;20113;-80
2021/09/23 08:44:49;;;;;;;20.27;9.48;;;;;;;13.90;71.13;98812.25;5009400;28;20026;-74
2021/09/23 08:47:16;;;;;;;15.00;8.68;;;;;;;14.01;70.98;98812.84;5010094;28;20466;-73
2021/09/23 08:49:42;;;;;;;17.70;9.93;;;;;;;14.10;70.79;98810.16;5013447;28;20029;-74
2021/09/23 08:52:08;;;;;;;21.75;10.75;;;;;;;14.18;70.49;98798.38;5007976;28;20537;-73
2021/09/23 08:54:33;;;;;;;21.50;9.43;;;;;;;14.25;69.45;98793.25;5012475;28;20501;-73
2021/09/23 08:57:01;;;;;;;16.42;8.00;;;;;;;14.32;69.87;98797.53;5009127;28;20394;-74
2021/09/23 08:59:30;;;;;;;12.52;7.88;;;;;;;14.33;68.72;98796.38;5012816;28;20045;-74
2021/09/23 09:01:56;;;;;;;16.10;8.32;;;;;;;14.36;69.30;98793.81;5007779;28;20034;-73
2021/09/23 09:04:30;;;;;;;12.90;7.60;;;;;;;14.42;68.64;98789.00;5019155;28;20041;-77
2021/09/23 09:06:58;;;;;;;14.93;7.82;;;;;;;14.48;68.24;98797.97;5006571;28;20533;-74
2021/09/23 09:09:24;;;;;;;16.45;7.88;;;;;;;14.51;68.20;98783.53;5000516;28;20096;-74
2021/09/23 09:11:51;;;;;;;13.25;6.78;;;;;;;14.61;67.97;98793.50;4990198;28;20037;-76
2021/09/23 09:14:28;;;;;;;13.38;6.72;;;;;;;14.71;68.10;98780.25;5007061;28;20033;-76
2021/09/23 09:16:59;;;;;;;13.07;6.38;;;;;;;14.75;67.50;98777.69;5007196;28;20041;-77
2021/09/23 09:19:25;;;;;;;15.45;7.63;;;;;;;14.84;67.38;98767.53;5003059;28;20486;-75
2021/09/23 09:21:50;;;;;;;21.02;7.93;;;;;;;14.99;68.14;98762.69;5011146;28;20057;-76
2021/09/23 09:24:18;;;;;;;13.82;7.50;;;;;;;15.12;67.71;98772.00;5009107;28;20133;-76
2021/09/23 09:26:43;;;;;;;13.13;6.85;;;;;;;15.16;66.84;98773.00;5011421;28;20026;-74
2021/09/23 09:29:13;;;;;;;14.20;6.63;;;;;;;15.17;66.37;98769.13;5011558;28;20037;-72
2021/09/23 09:31:48;;;;;;;10.00;5.65;;;;;;;15.23;66.88;98767.03;5009507;28;20026;-77
2021/09/23 09:34:15;;;;;;;11.70;6.82;;;;;;;15.28;66.51;98770.47;5008183;28;20026;-77
2021/09/23 09:36:48;;;;;;;15.88;7.90;;;;;;;15.35;66.74;98766.41;5009063;28;20111;-76
2021/09/23 09:39:17;;;;;;;13.75;7.38;;;;;;;15.44;66.38;98762.53;5014066;28;20040;-73
2021/09/23 09:41:52;;;;;;;13.63;7.50;;;;;;;15.57;66.58;98752.47;5024341;28;20033;-74
2021/09/23 09:44:18;;;;;;;11.93;6.57;;;;;;;15.69;66.58;98743.53;5011777;28;20042;-73
2021/09/23 09:46:49;;;;;;;11.23;5.70;;;;;;;15.71;64.98;98740.47;5007591;28;20028;-74
2021/09/23 09:49:16;;;;;;;11.15;6.22;;;;;;;15.69;63.82;98743.53;5011188;28;20037;-72
2021/09/23 09:51:46;;;;;;;11.20;6.68;;;;;;;15.69;64.59;98731.69;5010099;28;20044;-76
2021/09/23 09:54:14;;;;;;;8.35;5.40;;;;;;;15.68;64.58;98725.34;5010732;28;20040;-75
2021/09/23 09:56:42;;;;;;;13.40;6.60;;;;;;;15.72;64.86;98722.75;5010885;28;20037;-73
2021/09/23 09:59:16;;;;;;;10.43;6.07;;;;;;;15.76;65.34;98726.50;5008035;28;20084;-75
2021/09/23 10:01:53;;;;;;;12.80;6.78;;;;;;;15.81;65.00;98728.28;5008999;28;20026;-72
2021/09/23 10:04:20;;;;;;;12.45;6.45;;;;;;;15.82;63.89;98714.13;5011034;28;20127;-75
2021/09/23 10:06:46;;;;;;;14.75;7.95;;;;;;;15.87;64.62;98719.53;5009647;28;20501;-75
2021/09/23 10:09:15;;;;;;;15.02;7.43;;;;;;;15.98;64.66;98710.91;5014931;28;20030;-74
2021/09/23 10:11:47;;;;;;;14.38;7.20;;;;;;;15.97;64.14;98699.03;5007870;28;20037;-76
2021/09/23 10:14:14;;;;;;;16.35;7.00;;;;;;;15.99;64.38;98699.53;5019532;28;20060;-77
2021/09/23 10:16:40;;;;;;;16.17;7.90;;;;;;;16.03;64.66;98699.66;5031171;28;20495;-72
2021/09/23 10:19:07;;;;;;;12.73;6.88;;;;;;;16.12;64.75;98703.25;5020837;28;20042;-73
2021/09/23 10:21:34;;;;;;;13.73;6.97;;;;;;;16.18;64.54;98701.09;5010831;28;20064;-75
2021/09/23 10:24:02;;;;;;;13.75;7.60;;;;;;;16.23;64.21;98692.66;5011565;28;20468;-74
2021/09/23 10:26:30;;;;;;;13.00;7.35;;;;;;;16.28;63.79;98695.25;5006471;28;20030;-75
2021/09/23 10:28:59;;;;;;;12.75;6.88;;;;;;;16.30;64.20;98684.66;5026811;28;20022;-73
2021/09/23 10:31:31;;;;;;;12.63;6.77;;;;;;;16.30;63.54;98695.72;5010898;28;20548;-72
2021/09/23 10:33:59;;;;;;;8.75;5.35;;;;;;;16.26;62.52;98708.59;5008641;28;20732;-74
2021/09/23 10:36:25;;;;;;;9.88;5.30;;;;;;;16.19;61.85;98691.66;5011364;28;20030;-73
2021/09/23 10:38:51;;;;;;;8.25;4.40;;;;;;;16.17;62.09;98682.88;5024296;28;20053;-73
2021/09/23 10:41:17;;;;;;;12.30;5.28;;;;;;;16.18;62.40;98676.22;4990718;28;20030;-72
2021/09/23 10:43:43;;;;;;;10.40;4.60;;;;;;;16.22;60.63;98678.00;5020666;28;20105;-72
2021/09/23 10:46:11;;;;;;;10.43;5.50;;;;;;;16.28;61.27;98664.00;5008186;28;20049;-72
2021/09/23 10:48:39;;;;;;;6.25;4.07;;;;;;;16.37;61.37;98673.06;5009018;28;20056;-74
2021/09/23 10:51:05;;;;;;;8.75;4.40;;;;;;;16.44;60.02;98673.38;5009365;28;20079;-71
2021/09/23 10:53:35;;;;;;;11.48;4.82;;;;;;;16.51;61.34;98670.09;5009326;28;20041;-72
2021/09/23 10:56:03;;;;;;;8.13;4.40;;;;;;;16.57;61.11;98662.44;4991481;28;20097;-72
2021/09/23 10:58:30;;;;;;;10.02;4.82;;;;;;;16.72;62.09;98656.34;5010167;28;20433;-72
2021/09/23 11:00:59;;;;;;;8.60;4.78;;;;;;;16.85;60.70;98657.28;5010484;28;20029;-71
2021/09/23 11:03:31;;;;;;;9.07;5.35;;;;;;;16.92;60.40;98643.69;5012421;28;20073;-74
2021/09/23 11:05:57;;;;;;;9.88;5.43;;;;;;;16.93;59.49;98639.78;5010152;28;20045;-72
2021/09/23 11:08:23;;;;;;;13.05;6.03;;;;;;;16.89;59.89;98638.84;5010137;28;20037;-73
2021/09/23 11:10:49;;;;;;;21.35;13.82;;;;;;;16.90;60.55;98629.41;5009993;28;20030;-72
2021/09/23 11:13:17;;;;;;;13.05;8.38;;;;;;;17.01;60.65;98616.00;5009825;28;20173;-73
2021/09/23 11:15:44;;;;;;;10.80;6.93;;;;;;;17.07;60.54;98619.38;5009815;28;20026;-72
2021/09/23 11:18:10;;;;;;;9.27;5.65;;;;;;;17.13;60.46;98617.19;4992509;28;20022;-72